sensor_id;sensor_type;location;lat;lon;timestamp;pressure;altitude;pressure_sealevel;temperature;humidity
16190;BME280;41754;51.498;7.540;2023-11-19T00:01:14;99715.09;;;10.30;100.00
16190;BME280;41754;51.498;7.540;2023-11-19T00:03:42;99701.22;;;10.28;100.00
16190;BME280;41754;51.498;7.540;2023-11-19T00:06:10;99678.59;;;10.38;100.00
16190;BME280;41754;51.498;7.540;2023-11-19T00:08:39;99681.25;;;10.50;100.00
16190;BME280;41754;51.498;7.540;2023-11-19T00:11:06;99678.59;;;10.38;100.00
16190;BME280;41754;51.498;7.540;2023-11-19T00:13:36;99672.66;;;10.48;100.00
16190;BME280;41754;51.498;7.540;2023-11-19T00:16:04;99664.78;;;10.48;100.00
16190;BME280;41754;51.498;7.540;2023-11-19T00:18:33;99694.47;;;10.37;100.00
16190;BME280;41754;51.498;7.540;2023-11-19T00:21:02;99690.34;;;10.46;100.00
16190;BME280;41754;51.498;7.540;2023-11-19T00:23:30;99703.19;;;10.62;100.00
16190;BME280;41754;51.498;7.540;2023-11-19T00:25:59;99705.66;;;10.52;100.00
16190;BME280;41754;51.498;7.540;2023-11-19T00:28:26;99710.47;;;10.58;100.00
16190;BME280;41754;51.498;7.540;2023-11-19T00:30:56;99707.66;;;10.84;100.00
16190;BME280;41754;51.498;7.540;2023-11-19T00:33:25;99694.28;;;10.87;99.95
16190;BME280;41754;51.498;7.540;2023-11-19T00:35:53;99689.59;;;10.90;99.82
16190;BME280;41754;51.498;7.540;2023-11-19T00:38:22;99707.19;;;10.90;100.00
16190;BME280;41754;51.498;7.540;2023-11-19T00:40:50;99700.38;;;10.99;99.73
16190;BME280;41754;51.498;7.540;2023-11-19T00:43:18;99695.59;;;10.92;99.72
16190;BME280;41754;51.498;7.540;2023-11-19T00:45:48;99709.75;;;11.03;99.64
16190;BME280;41754;51.498;7.540;2023-11-19T00:48:19;99700.41;;;11.10;99.34
16190;BME280;41754;51.498;7.540;2023-11-19T00:50:47;99695.97;;;11.10;99.34
16190;BME280;41754;51.498;7.540;2023-11-19T00:53:15;99683.53;;;11.01;99.68
16190;BME280;41754;51.498;7.540;2023-11-19T00:55:43;99677.53;;;11.10;99.61
16190;BME280;41754;51.498;7.540;2023-11-19T00:58:13;99683.63;;;11.11;100.00
16190;BME280;41754;51.498;7.540;2023-11-19T01:00:41;99674.22;;;11.20;100.00
16190;BME280;41754;51.498;7.540;2023-11-19T01:03:09;99679.47;;;11.20;100.00
16190;BME280;41754;51.498;7.540;2023-11-19T01:05:39;99674.09;;;11.21;100.00
16190;BME280;41754;51.498;7.540;2023-11-19T01:08:07;99678.16;;;11.25;100.00
16190;BME280;41754;51.498;7.540;2023-11-19T01:10:36;99661.28;;;11.28;100.00
16190;BME280;41754;51.498;7.540;2023-11-19T01:13:04;99653.75;;;11.23;100.00
16190;BME280;41754;51.498;7.540;2023-11-19T01:15:33;99650.25;;;11.34;100.00
16190;BME280;41754;51.498;7.540;2023-11-19T01:18:01;99656.13;;;11.38;100.00
16190;BME280;41754;51.498;7.540;2023-11-19T01:20:31;99647.84;;;11.42;100.00
16190;BME280;41754;51.498;7.540;2023-11-19T01:23:02;99642.94;;;11.49;100.00
16190;BME280;41754;51.498;7.540;2023-11-19T01:25:30;99643.66;;;11.51;100.00
16190;BME280;41754;51.498;7.540;2023-11-19T01:27:58;99652.25;;;11.64;100.00
16190;BME280;41754;51.498;7.540;2023-11-19T01:30:26;99653.69;;;11.68;100.00
16190;BME280;41754;51.498;7.540;2023-11-19T01:32:54;99658.63;;;11.62;100.00
16190;BME280;41754;51.498;7.540;2023-11-19T01:35:22;99655.75;;;11.54;100.00
16190;BME280;41754;51.498;7.540;2023-11-19T01:37:53;99660.28;;;11.63;100.00
16190;BME280;41754;51.498;7.540;2023-11-19T01:40:22;99672.25;;;11.56;100.00
16190;BME280;41754;51.498;7.540;2023-11-19T01:42:50;99662.91;;;11.63;100.00
16190;BME280;41754;51.498;7.540;2023-11-19T01:45:27;99661.00;;;11.65;100.00
16190;BME280;41754;51.498;7.540;2023-11-19T01:47:56;99644.72;;;11.60;100.00
16190;BME280;41754;51.498;7.540;2023-11-19T01:50:24;99639.06;;;11.64;100.00
16190;BME280;41754;51.498;7.540;2023-11-19T01:52:53;99637.91;;;11.57;100.00
16190;BME280;41754;51.498;7.540;2023-11-19T01:55:23;99627.59;;;11.65;100.00
16190;BME280;41754;51.498;7.540;2023-11-19T01:57:53;99628.06;;;11.59;100.00
16190;BME280;41754;51.498;7.540;2023-11-19T02:00:22;99629.41;;;11.65;100.00
16190;BME280;41754;51.498;7.540;2023-11-19T02:02:50;99632.03;;;11.54;100.00
16190;BME280;41754;51.498;7.540;2023-11-19T02:05:21;99620.75;;;11.63;100.00
16190;BME280;41754;51.498;7.540;2023-11-19T02:07:49;99629.41;;;11.65;100.00
16190;BME280;41754;51.498;7.540;2023-11-19T02:10:18;99619.34;;;11.59;100.00
16190;BME280;41754;51.498;7.540;2023-11-19T02:12:47;99626.75;;;11.65;100.00
16190;BME280;41754;51.498;7.540;2023-11-19T02:15:15;99610.94;;;11.65;100.00
16190;BME280;41754;51.498;7.540;2023-11-19T02:17:45;99619.81;;;11.64;100.00
16190;BME280;41754;51.498;7.540;2023-11-19T02:20:13;99617.28;;;11.62;100.00
16190;BME280;41754;51.498;7.540;2023-11-19T02:22:42;99621.59;;;11.63;100.00
16190;BME280;41754;51.498;7.540;2023-11-19T02:25:18;99618.81;;;11.76;100.00
16190;BME280;41754;51.498;7.540;2023-11-19T02:27:53;99621.22;;;11.68;100.00
16190;BME280;41754;51.498;7.540;2023-11-19T02:30:23;99621.91;;;11.81;100.00
16190;BME280;41754;51.498;7.540;2023-11-19T02:32:53;99611.34;;;11.81;100.00
16190;BME280;41754;51.498;7.540;2023-11-19T02:35:23;99612.59;;;11.77;100.00
16190;BME280;41754;51.498;7.540;2023-11-19T02:37:52;99590.28;;;11.81;100.00
16190;BME280;41754;51.498;7.540;2023-11-19T02:40:20;99601.44;;;11.85;100.00
16190;BME280;41754;51.498;7.540;2023-11-19T02:42:52;99602.25;;;11.85;100.00
16190;BME280;41754;51.498;7.540;2023-11-19T02:45:21;99598.38;;;11.89;100.00
16190;BME280;41754;51.498;7.540;2023-11-19T02:47:49;99597.09;;;11.95;100.00
16190;BME280;41754;51.498;7.540;2023-11-19T02:50:18;99592.91;;;11.93;100.00
16190;BME280;41754;51.498;7.540;2023-11-19T02:52:53;99573.97;;;11.87;100.00
16190;BME280;41754;51.498;7.540;2023-11-19T02:55:24;99579.00;;;11.91;100.00
16190;BME280;41754;51.498;7.540;2023-11-19T02:57:56;99587.38;;;11.96;100.00
16190;BME280;41754;51.498;7.540;2023-11-19T03:00:26;99595.16;;;11.97;100.00
16190;BME280;41754;51.498;7.540;2023-11-19T03:03:03;99588.53;;;12.03;100.00
16190;BME280;41754;51.498;7.540;2023-11-19T03:05:45;99589.28;;;12.05;100.00
16190;BME280;41754;51.498;7.540;2023-11-19T03:08:14;99577.94;;;11.93;100.00
16190;BME280;41754;51.498;7.540;2023-11-19T03:10:45;99574.91;;;11.98;100.00
16190;BME280;41754;51.498;7.540;2023-11-19T03:13:15;99579.09;;;12.00;100.00
16190;BME280;41754;51.498;7.540;2023-11-19T03:15:43;99573.25;;;11.97;100.00
16190;BME280;41754;51.498;7.540;2023-11-19T03:18:12;99579.69;;;12.04;100.00
16190;BME280;41754;51.498;7.540;2023-11-19T03:20:40;99578.31;;;12.10;100.00
16190;BME280;41754;51.498;7.540;2023-11-19T03:23:08;99571.91;;;12.02;100.00
16190;BME280;41754;51.498;7.540;2023-11-19T03:25:36;99563.28;;;12.00;100.00
16190;BME280;41754;51.498;7.540;2023-11-19T03:28:04;99572.56;;;12.16;100.00
16190;BME280;41754;51.498;7.540;2023-11-19T03:30:34;99554.72;;;12.08;100.00
16190;BME280;41754;51.498;7.540;2023-11-19T03:33:03;99554.22;;;12.14;100.00
16190;BME280;41754;51.498;7.540;2023-11-19T03:35:31;99551.72;;;12.13;100.00
16190;BME280;41754;51.498;7.540;2023-11-19T03:37:59;99557.97;;;12.12;100.00
16190;BME280;41754;51.498;7.540;2023-11-19T03:40:27;99562.00;;;12.16;100.00
16190;BME280;41754;51.498;7.540;2023-11-19T03:42:56;99566.69;;;12.12;100.00
16190;BME280;41754;51.498;7.540;2023-11-19T03:45:24;99583.22;;;12.14;100.00
16190;BME280;41754;51.498;7.540;2023-11-19T03:47:53;99575.88;;;12.18;100.00
16190;BME280;41754;51.498;7.540;2023-11-19T03:50:22;99575.81;;;12.08;100.00
16190;BME280;41754;51.498;7.540;2023-11-19T03:52:50;99589.72;;;12.10;100.00
16190;BME280;41754;51.498;7.540;2023-11-19T03:55:19;99577.75;;;12.06;100.00
16190;BME280;41754;51.498;7.540;2023-11-19T03:57:46;99569.88;;;11.95;100.00
16190;BME280;41754;51.498;7.540;2023-11-19T04:00:15;99571.56;;;11.96;100.00
16190;BME280;41754;51.498;7.540;2023-11-19T04:02:44;99588.50;;;11.93;100.00
16190;BME280;41754;51.498;7.540;2023-11-19T04:05:15;99590.59;;;11.88;100.00
16190;BME280;41754;51.498;7.540;2023-11-19T04:07:45;99587.03;;;11.89;100.00
16190;BME280;41754;51.498;7.540;2023-11-19T04:10:13;99589.78;;;11.87;99.98
16190;BME280;41754;51.498;7.540;2023-11-19T04:12:43;99584.38;;;11.89;98.14
16190;BME280;41754;51.498;7.540;2023-11-19T04:15:11;99592.91;;;11.81;98.25
16190;BME280;41754;51.498;7.540;2023-11-19T04:17:39;99583.59;;;11.77;98.52
16190;BME280;41754;51.498;7.540;2023-11-19T04:20:07;99590.22;;;11.72;98.61
16190;BME280;41754;51.498;7.540;2023-11-19T04:22:40;99587.69;;;11.70;98.35
16190;BME280;41754;51.498;7.540;2023-11-19T04:25:08;99602.31;;;11.63;98.36
16190;BME280;41754;51.498;7.540;2023-11-19T04:27:37;99592.75;;;11.62;97.91
16190;BME280;41754;51.498;7.540;2023-11-19T04:30:07;99584.84;;;11.62;97.29
16190;BME280;41754;51.498;7.540;2023-11-19T04:32:37;99581.75;;;11.57;97.59
16190;BME280;41754;51.498;7.540;2023-11-19T04:35:07;99584.25;;;11.58;97.28
16190;BME280;41754;51.498;7.540;2023-11-19T04:37:35;99582.94;;;11.52;97.79
16190;BME280;41754;51.498;7.540;2023-11-19T04:40:05;99582.00;;;11.42;98.85
16190;BME280;41754;51.498;7.540;2023-11-19T04:42:34;99586.34;;;11.43;98.47
16190;BME280;41754;51.498;7.540;2023-11-19T04:45:02;99587.03;;;11.45;98.23
16190;BME280;41754;51.498;7.540;2023-11-19T04:47:32;99588.34;;;11.51;97.22
16190;BME280;41754;51.498;7.540;2023-11-19T04:50:01;99588.34;;;11.51;97.01
16190;BME280;41754;51.498;7.540;2023-11-19T04:52:28;99587.50;;;11.50;96.67
16190;BME280;41754;51.498;7.540;2023-11-19T04:54:56;99598.50;;;11.56;96.36
16190;BME280;41754;51.498;7.540;2023-11-19T04:57:25;99596.13;;;11.52;95.63
16190;BME280;41754;51.498;7.540;2023-11-19T04:59:53;99590.13;;;11.50;95.75
16190;BME280;41754;51.498;7.540;2023-11-19T05:02:21;99600.91;;;11.47;95.71
16190;BME280;41754;51.498;7.540;2023-11-19T05:04:49;99600.91;;;11.47;95.10
16190;BME280;41754;51.498;7.540;2023-11-19T05:07:17;99599.97;;;11.48;95.02
16190;BME280;41754;51.498;7.540;2023-11-19T05:09:45;99603.44;;;11.38;95.30
16190;BME280;41754;51.498;7.540;2023-11-19T05:12:13;99592.66;;;11.41;94.13
16190;BME280;41754;51.498;7.540;2023-11-19T05:14:42;99597.22;;;11.50;92.50
16190;BME280;41754;51.498;7.540;2023-11-19T05:17:17;99591.81;;;11.51;92.65
16190;BME280;41754;51.498;7.540;2023-11-19T05:19:46;99599.09;;;11.59;92.75
16190;BME280;41754;51.498;7.540;2023-11-19T05:22:15;99589.75;;;11.66;93.06
16190;BME280;41754;51.498;7.540;2023-11-19T05:24:43;99595.63;;;11.59;93.60
16190;BME280;41754;51.498;7.540;2023-11-19T05:27:11;99614.41;;;11.65;93.65
16190;BME280;41754;51.498;7.540;2023-11-19T05:29:40;99610.94;;;11.65;92.00
16190;BME280;41754;51.498;7.540;2023-11-19T05:32:09;99595.75;;;11.57;92.43
16190;BME280;41754;51.498;7.540;2023-11-19T05:34:38;99593.94;;;11.58;91.75
16190;BME280;41754;51.498;7.540;2023-11-19T05:37:18;99610.69;;;11.68;90.48
16190;BME280;41754;51.498;7.540;2023-11-19T05:39:46;99600.41;;;11.65;91.02
16190;BME280;41754;51.498;7.540;2023-11-19T05:42:14;99601.97;;;11.56;91.61
16190;BME280;41754;51.498;7.540;2023-11-19T05:44:41;99610.25;;;11.51;92.22
16190;BME280;41754;51.498;7.540;2023-11-19T05:47:10;99610.72;;;11.57;91.57
16190;BME280;41754;51.498;7.540;2023-11-19T05:49:38;99613.19;;;11.69;90.43
16190;BME280;41754;51.498;7.540;2023-11-19T05:52:06;99610.50;;;11.60;90.64
16190;BME280;41754;51.498;7.540;2023-11-19T05:54:36;99601.72;;;11.59;91.04
16190;BME280;41754;51.498;7.540;2023-11-19T05:57:05;99593.47;;;11.64;90.88
16190;BME280;41754;51.498;7.540;2023-11-19T05:59:33;99602.28;;;11.74;90.04
16190;BME280;41754;51.498;7.540;2023-11-19T06:02:00;99601.56;;;11.83;89.67
16190;BME280;41754;51.498;7.540;2023-11-19T06:04:30;99593.06;;;11.80;90.07
16190;BME280;41754;51.498;7.540;2023-11-19T06:06:58;99596.41;;;11.82;90.00
16190;BME280;41754;51.498;7.540;2023-11-19T06:09:25;99610.75;;;11.89;89.65
16190;BME280;41754;51.498;7.540;2023-11-19T06:11:53;99600.06;;;11.91;89.52
16190;BME280;41754;51.498;7.540;2023-11-19T06:14:23;99607.41;;;11.87;89.27
16190;BME280;41754;51.498;7.540;2023-11-19T06:16:51;99613.03;;;11.94;88.27
16190;BME280;41754;51.498;7.540;2023-11-19T06:19:19;99617.34;;;11.95;87.70
16190;BME280;41754;51.498;7.540;2023-11-19T06:21:49;99613.50;;;11.87;87.65
16190;BME280;41754;51.498;7.540;2023-11-19T06:24:16;99617.59;;;11.80;87.17
16190;BME280;41754;51.498;7.540;2023-11-19T06:26:44;99607.78;;;11.71;87.40
16190;BME280;41754;51.498;7.540;2023-11-19T06:29:12;99618.81;;;11.76;85.22
16190;BME280;41754;51.498;7.540;2023-11-19T06:31:45;99615.81;;;11.69;85.56
16190;BME280;41754;51.498;7.540;2023-11-19T06:34:15;99623.91;;;11.57;86.42
16190;BME280;41754;51.498;7.540;2023-11-19T06:36:43;99625.31;;;11.61;86.24
16190;BME280;41754;51.498;7.540;2023-11-19T06:39:12;99632.84;;;11.65;85.60
16190;BME280;41754;51.498;7.540;2023-11-19T06:41:44;99623.03;;;11.67;85.48
16190;BME280;41754;51.498;7.540;2023-11-19T06:44:12;99628.19;;;11.58;86.09
16190;BME280;41754;51.498;7.540;2023-11-19T06:46:40;99627.25;;;11.59;85.56
16190;BME280;41754;51.498;7.540;2023-11-19T06:49:09;99633.34;;;11.59;85.47
16190;BME280;41754;51.498;7.540;2023-11-19T06:51:41;99632.97;;;11.64;84.94
16190;BME280;41754;51.498;7.540;2023-11-19T06:54:09;99627.47;;;11.56;85.91
16190;BME280;41754;51.498;7.540;2023-11-19T06:56:38;99630.34;;;11.52;86.41
16190;BME280;41754;51.498;7.540;2023-11-19T06:59:06;99642.94;;;11.49;86.92
16190;BME280;41754;51.498;7.540;2023-11-19T07:01:34;99646.03;;;11.54;86.08
16190;BME280;41754;51.498;7.540;2023-11-19T07:04:03;99646.63;;;11.58;86.61
16190;BME280;41754;51.498;7.540;2023-11-19T07:06:36;99652.16;;;11.55;85.74
16190;BME280;41754;51.498;7.540;2023-11-19T07:09:04;99661.59;;;11.57;85.11
16190;BME280;41754;51.498;7.540;2023-11-19T07:11:37;99656.69;;;11.52;85.16
16190;BME280;41754;51.498;7.540;2023-11-19T07:14:07;99661.97;;;11.64;83.06
16190;BME280;41754;51.498;7.540;2023-11-19T07:16:35;99673.72;;;11.60;83.14
16190;BME280;41754;51.498;7.540;2023-11-19T07:19:05;99674.66;;;11.59;82.97
16190;BME280;41754;51.498;7.540;2023-11-19T07:21:33;99675.84;;;11.66;83.46
16190;BME280;41754;51.498;7.540;2023-11-19T07:24:02;99672.25;;;11.67;82.68
16190;BME280;41754;51.498;7.540;2023-11-19T07:26:30;99665.06;;;11.69;82.72
16190;BME280;41754;51.498;7.540;2023-11-19T07:28:58;99680.88;;;11.69;82.73
16190;BME280;41754;51.498;7.540;2023-11-19T07:31:29;99679.06;;;11.69;82.39
16190;BME280;41754;51.498;7.540;2023-11-19T07:33:57;99669.38;;;11.70;82.37
16190;BME280;41754;51.498;7.540;2023-11-19T07:36:25;99677.75;;;11.64;82.53
16190;BME280;41754;51.498;7.540;2023-11-19T07:38:53;99677.53;;;11.67;82.08
16190;BME280;41754;51.498;7.540;2023-11-19T07:41:24;99685.41;;;11.78;82.35
16190;BME280;41754;51.498;7.540;2023-11-19T07:43:56;99690.69;;;11.78;81.81
16190;BME280;41754;51.498;7.540;2023-11-19T07:46:23;99690.56;;;11.91;81.99
16190;BME280;41754;51.498;7.540;2023-11-19T07:48:53;99694.97;;;11.91;80.65
16190;BME280;41754;51.498;7.540;2023-11-19T07:51:21;99692.13;;;11.94;81.05
16190;BME280;41754;51.498;7.540;2023-11-19T07:53:49;99688.78;;;11.92;81.52
16190;BME280;41754;51.498;7.540;2023-11-19T07:56:17;99691.41;;;11.92;80.81
16190;BME280;41754;51.498;7.540;2023-11-19T07:58:46;99710.09;;;11.77;81.27
16190;BME280;41754;51.498;7.540;2023-11-19T08:01:15;99723.72;;;11.82;80.58
16190;BME280;41754;51.498;7.540;2023-11-19T08:03:43;99720.03;;;11.85;81.06
16190;BME280;41754;51.498;7.540;2023-11-19T08:06:18;99703.81;;;11.89;80.03
16190;BME280;41754;51.498;7.540;2023-11-19T08:08:46;99712.50;;;11.92;79.76
16190;BME280;41754;51.498;7.540;2023-11-19T08:11:15;99715.34;;;11.88;79.42
16190;BME280;41754;51.498;7.540;2023-11-19T08:13:45;99720.25;;;11.82;79.19
16190;BME280;41754;51.498;7.540;2023-11-19T08:16:13;99725.88;;;11.88;78.74
16190;BME280;41754;51.498;7.540;2023-11-19T08:18:42;99733.59;;;11.92;78.90
16190;BME280;41754;51.498;7.540;2023-11-19T08:21:11;99709.59;;;11.83;78.65
16190;BME280;41754;51.498;7.540;2023-11-19T08:23:40;99727.66;;;11.88;78.33
16190;BME280;41754;51.498;7.540;2023-11-19T08:26:08;99739.31;;;11.85;78.49
16190;BME280;41754;51.498;7.540;2023-11-19T08:28:37;99721.56;;;12.10;77.37
16190;BME280;41754;51.498;7.540;2023-11-19T08:31:05;99733.84;;;12.32;77.23
16190;BME280;41754;51.498;7.540;2023-11-19T08:33:33;99740.47;;;12.15;76.44
16190;BME280;41754;51.498;7.540;2023-11-19T08:36:02;99734.09;;;12.18;76.29
16190;BME280;41754;51.498;7.540;2023-11-19T08:38:31;99749.34;;;12.14;76.44
16190;BME280;41754;51.498;7.540;2023-11-19T08:41:04;99762.88;;;12.21;76.00
16190;BME280;41754;51.498;7.540;2023-11-19T08:43:32;99732.78;;;12.23;76.16
16190;BME280;41754;51.498;7.540;2023-11-19T08:46:00;99746.72;;;12.03;76.95
16190;BME280;41754;51.498;7.540;2023-11-19T08:48:28;99743.13;;;12.04;77.39
16190;BME280;41754;51.498;7.540;2023-11-19T08:50:55;99719.03;;;12.09;76.97
16190;BME280;41754;51.498;7.540;2023-11-19T08:53:23;99740.81;;;12.22;76.90
16190;BME280;41754;51.498;7.540;2023-11-19T08:55:51;99740.97;;;12.41;75.35
16190;BME280;41754;51.498;7.540;2023-11-19T08:58:20;99751.06;;;12.36;75.68
16190;BME280;41754;51.498;7.540;2023-11-19T09:00:48;99742.03;;;12.50;75.79
16190;BME280;41754;51.498;7.540;2023-11-19T09:03:16;99747.25;;;12.61;75.50
16190;BME280;41754;51.498;7.540;2023-11-19T09:05:44;99744.81;;;12.70;74.25
16190;BME280;41754;51.498;7.540;2023-11-19T09:08:12;99740.72;;;12.98;73.52
16190;BME280;41754;51.498;7.540;2023-11-19T09:10:40;99736.47;;;12.86;73.88
16190;BME280;41754;51.498;7.540;2023-11-19T09:13:08;99737.69;;;12.81;73.01
16190;BME280;41754;51.498;7.540;2023-11-19T09:15:37;99743.66;;;12.62;74.47
16190;BME280;41754;51.498;7.540;2023-11-19T09:18:05;99753.97;;;12.66;73.93
16190;BME280;41754;51.498;7.540;2023-11-19T09:20:33;99749.66;;;12.65;74.41
16190;BME280;41754;51.498;7.540;2023-11-19T09:23:05;99744.75;;;12.60;73.96
16190;BME280;41754;51.498;7.540;2023-11-19T09:25:35;99737.97;;;12.46;74.23
16190;BME280;41754;51.498;7.540;2023-11-19T09:28:06;99752.16;;;12.34;74.96
16190;BME280;41754;51.498;7.540;2023-11-19T09:30:36;99748.94;;;12.62;74.00
16190;BME280;41754;51.498;7.540;2023-11-19T09:33:04;99750.41;;;12.55;74.24
16190;BME280;41754;51.498;7.540;2023-11-19T09:35:32;99758.88;;;12.27;75.25
16190;BME280;41754;51.498;7.540;2023-11-19T09:38:00;99742.38;;;12.57;74.14
16190;BME280;41754;51.498;7.540;2023-11-19T09:40:32;99742.22;;;12.58;73.83
16190;BME280;41754;51.498;7.540;2023-11-19T09:43:00;99748.03;;;12.52;74.25
16190;BME280;41754;51.498;7.540;2023-11-19T09:45:29;99742.25;;;12.79;73.37
16190;BME280;41754;51.498;7.540;2023-11-19T09:48:00;99738.00;;;12.88;73.01
16190;BME280;41754;51.498;7.540;2023-11-19T09:50:31;99740.25;;;12.93;72.90
16190;BME280;41754;51.498;7.540;2023-11-19T09:52:59;99740.50;;;12.90;73.03
16190;BME280;41754;51.498;7.540;2023-11-19T09:55:26;99744.72;;;13.34;70.77
16190;BME280;41754;51.498;7.540;2023-11-19T09:57:54;99739.16;;;13.38;70.25
16190;BME280;41754;51.498;7.540;2023-11-19T10:00:23;99738.78;;;13.00;71.25
16190;BME280;41754;51.498;7.540;2023-11-19T10:02:51;99745.25;;;13.17;70.15
16190;BME280;41754;51.498;7.540;2023-11-19T10:05:22;99736.31;;;13.29;70.19
16190;BME280;41754;51.498;7.540;2023-11-19T10:07:51;99738.50;;;13.24;69.21
16190;BME280;41754;51.498;7.540;2023-11-19T10:10:20;99728.91;;;13.23;69.54
16190;BME280;41754;51.498;7.540;2023-11-19T10:12:50;99736.63;;;13.15;69.66
16190;BME280;41754;51.498;7.540;2023-11-19T10:15:22;99739.66;;;13.31;69.07
16190;BME280;41754;51.498;7.540;2023-11-19T10:17:55;99731.81;;;13.82;68.78
16190;BME280;41754;51.498;7.540;2023-11-19T10:20:25;99735.75;;;13.97;67.05
16190;BME280;41754;51.498;7.540;2023-11-19T10:22:53;99725.91;;;14.19;65.88
16190;BME280;41754;51.498;7.540;2023-11-19T10:25:22;99745.16;;;14.50;64.41
16190;BME280;41754;51.498;7.540;2023-11-19T10:27:51;99721.88;;;14.34;64.58
16190;BME280;41754;51.498;7.540;2023-11-19T10:30:20;99718.53;;;14.32;65.75
16190;BME280;41754;51.498;7.540;2023-11-19T10:33:05;99732.91;;;13.69;66.30
16190;BME280;41754;51.498;7.540;2023-11-19T10:35:36;99710.00;;;13.49;67.22
16190;BME280;41754;51.498;7.540;2023-11-19T10:38:13;99706.09;;;13.43;68.28
16190;BME280;41754;51.498;7.540;2023-11-19T10:40:42;99717.31;;;13.35;68.06
16190;BME280;41754;51.498;7.540;2023-11-19T10:43:11;99717.59;;;13.11;68.78
16190;BME280;41754;51.498;7.540;2023-11-19T10:45:39;99718.47;;;13.43;68.35
16190;BME280;41754;51.498;7.540;2023-11-19T10:48:07;99726.13;;;13.46;67.46
16190;BME280;41754;51.498;7.540;2023-11-19T10:50:39;99724.88;;;13.19;68.40
16190;BME280;41754;51.498;7.540;2023-11-19T10:53:09;99740.72;;;13.19;68.02
16190;BME280;41754;51.498;7.540;2023-11-19T10:55:37;99732.38;;;13.45;68.20
16190;BME280;41754;51.498;7.540;2023-11-19T10:58:07;99717.91;;;13.18;67.06
16190;BME280;41754;51.498;7.540;2023-11-19T11:00:39;99714.81;;;13.13;68.30
16190;BME280;41754;51.498;7.540;2023-11-19T11:03:16;99728.97;;;13.12;68.30
16190;BME280;41754;51.498;7.540;2023-11-19T11:05:46;99719.78;;;13.06;68.56
16190;BME280;41754;51.498;7.540;2023-11-19T11:08:15;99722.75;;;13.34;68.00
16190;BME280;41754;51.498;7.540;2023-11-19T11:10:45;99706.88;;;13.13;68.85
16190;BME280;41754;51.498;7.540;2023-11-19T11:13:17;99710.66;;;13.20;68.64
16190;BME280;41754;51.498;7.540;2023-11-19T11:15:46;99727.06;;;13.14;68.95
16190;BME280;41754;51.498;7.540;2023-11-19T11:18:14;99715.53;;;13.36;67.51
16190;BME280;41754;51.498;7.540;2023-11-19T11:20:45;99718.72;;;13.40;66.89
16190;BME280;41754;51.498;7.540;2023-11-19T11:23:49;99712.25;;;13.02;68.52
16190;BME280;41754;51.498;7.540;2023-11-19T11:26:32;99719.28;;;13.22;68.32
16190;BME280;41754;51.498;7.540;2023-11-19T11:29:05;99714.13;;;13.11;67.83
16190;BME280;41754;51.498;7.540;2023-11-19T11:31:51;99719.59;;;13.19;67.71
16190;BME280;41754;51.498;7.540;2023-11-19T11:34:44;99711.47;;;13.11;68.23
16190;BME280;41754;51.498;7.540;2023-11-19T11:37:26;99725.75;;;13.29;67.87
16190;BME280;41754;51.498;7.540;2023-11-19T11:39:57;99719.22;;;13.03;68.00
16190;BME280;41754;51.498;7.540;2023-11-19T11:42:36;99727.94;;;13.24;67.45
16190;BME280;41754;51.498;7.540;2023-11-19T11:45:05;99732.50;;;13.43;66.73
16190;BME280;41754;51.498;7.540;2023-11-19T11:48:08;99717.19;;;13.16;67.59
16190;BME280;41754;51.498;7.540;2023-11-19T11:50:51;99703.19;;;13.25;67.43
16190;BME280;41754;51.498;7.540;2023-11-19T11:53:23;99708.28;;;13.17;67.50
16190;BME280;41754;51.498;7.540;2023-11-19T11:55:58;99706.75;;;13.14;67.33
16190;BME280;41754;51.498;7.540;2023-11-19T11:58:31;99705.94;;;13.45;66.70
16190;BME280;41754;51.498;7.540;2023-11-19T12:01:01;99696.78;;;14.09;64.44
16190;BME280;41754;51.498;7.540;2023-11-19T12:03:31;99695.13;;;14.47;62.26
16190;BME280;41754;51.498;7.540;2023-11-19T12:05:59;99678.94;;;16.46;56.15
16190;BME280;41754;51.498;7.540;2023-11-19T12:08:29;99678.13;;;16.27;55.59
16190;BME280;41754;51.498;7.540;2023-11-19T12:10:58;99670.72;;;15.30;57.76
16190;BME280;41754;51.498;7.540;2023-11-19T12:13:46;99689.06;;;15.13;58.05
16190;BME280;41754;51.498;7.540;2023-11-19T12:16:15;99680.66;;;14.12;61.34
16190;BME280;41754;51.498;7.540;2023-11-19T12:18:43;99668.69;;;14.08;61.80
16190;BME280;41754;51.498;7.540;2023-11-19T12:21:11;99664.34;;;14.07;62.08
16190;BME280;41754;51.498;7.540;2023-11-19T12:23:46;99681.47;;;14.13;61.87
16190;BME280;41754;51.498;7.540;2023-11-19T12:26:32;99690.75;;;13.87;62.88
16190;BME280;41754;51.498;7.540;2023-11-19T12:29:01;99670.78;;;13.54;63.77
16190;BME280;41754;51.498;7.540;2023-11-19T12:31:35;99664.88;;;14.79;60.02
16190;BME280;41754;51.498;7.540;2023-11-19T12:34:09;99666.84;;;15.24;57.80
16190;BME280;41754;51.498;7.540;2023-11-19T12:36:40;99692.03;;;15.93;55.40
16190;BME280;41754;51.498;7.540;2023-11-19T12:39:12;99672.88;;;14.40;59.85
16190;BME280;41754;51.498;7.540;2023-11-19T12:41:53;99664.19;;;13.99;61.24
16190;BME280;41754;51.498;7.540;2023-11-19T12:44:22;99659.06;;;13.97;61.26
16190;BME280;41754;51.498;7.540;2023-11-19T12:47:00;99658.31;;;13.76;62.17
16190;BME280;41754;51.498;7.540;2023-11-19T12:49:28;99642.75;;;13.72;62.86
16190;BME280;41754;51.498;7.540;2023-11-19T12:51:56;99654.38;;;13.50;63.37
16190;BME280;41754;51.498;7.540;2023-11-19T12:54:36;99644.22;;;13.55;62.51
16190;BME280;41754;51.498;7.540;2023-11-19T12:57:04;99639.66;;;13.67;62.93
16190;BME280;41754;51.498;7.540;2023-11-19T12:59:32;99638.59;;;13.89;62.54
16190;BME280;41754;51.498;7.540;2023-11-19T13:02:00;99633.69;;;13.65;63.61
16190;BME280;41754;51.498;7.540;2023-11-19T13:04:31;99633.50;;;13.38;64.82
16190;BME280;41754;51.498;7.540;2023-11-19T13:07:00;99650.19;;;13.48;64.43
16190;BME280;41754;51.498;7.540;2023-11-19T13:09:32;99638.38;;;13.52;64.18
16190;BME280;41754;51.498;7.540;2023-11-19T13:12:12;99641.41;;;13.38;64.08